Flight Track Log - Related Links

Times and Time Zones

All times are in EDT time to prevent confusion due to time zone crossing. See the ASQ5991 flight status page for this flight to view local times or setup timezone preferences in your user account.

Time Position Orientation Groundspeed Altitude Reporting Facility
EDT Latitude Longitude Course Direction KTS MPH feet Rate Location/Type
Tue 12:12:21 PM 39.8833 -104.6000 75° East 195 224 6,500  Level Denver TRACON
Tue 12:13:21 PM 39.9000 -104.5167 78° East 244 281 7,900 1,250 Climbing Denver TRACON
Tue 12:14:21 PM 39.9167 -104.4167 80° East 290 334 9,000 1,133 Climbing Denver TRACON
Tue 12:15:44 PM 39.9356 -104.2769 77° East 301 346 10,600 1,510 Climbing Denver Center
Tue 12:16:44 PM 39.9561 -104.1569 77° East 321 369 12,600 1,900 Climbing Denver Center
Tue 12:17:44 PM 39.9767 -104.0397 78° East 326 375 14,400 1,700 Climbing Denver Center
Tue 12:18:44 PM 39.9969 -103.9197 77° East 337 388 16,000 1,550 Climbing Denver Center
Tue 12:19:44 PM 40.0192 -103.7917 74° East 343 395 17,500 1,600 Climbing Denver Center
Tue 12:20:44 PM 40.0475 -103.6656 74° East 357 411 19,200 1,550 Climbing Denver Center
Tue 12:21:44 PM 40.0794 -103.5231 74° East 362 417 20,600 1,350 Climbing Denver Center
Tue 12:22:44 PM 40.1092 -103.3914 74° East 367 422 21,900 1,400 Climbing Denver Center
Tue 12:23:44 PM 40.1389 -103.2569 76° East 378 435 23,400 1,400 Climbing Denver Center
Tue 12:24:44 PM 40.1661 -103.1144 78° East 392 451 24,700 1,300 Climbing Denver Center
Tue 12:25:44 PM 40.1889 -102.9692 80° East 397 457 26,000 1,050 Climbing Denver Center
Tue 12:26:44 PM 40.2094 -102.8214 82° East 409 471 26,800 800 Climbing Denver Center
Tue 12:27:44 PM 40.2253 -102.6653 79° East 420 483 27,600 850 Climbing Denver Center
Tue 12:28:44 PM 40.2456 -102.5281 79° East 427 491 28,500 850 Climbing Denver Center
Tue 12:29:44 PM 40.2675 -102.3772 81° East 427 491 29,300 950 Climbing Denver Center
Tue 12:30:44 PM 40.2883 -102.2044 81° East 427 491 30,400 1,650 Climbing Denver Center
Tue 12:31:44 PM 40.3075 -102.0533 79° East 427 491 32,600 1,700 Climbing Denver Center
Tue 12:32:44 PM 40.3256 -101.9267 79° East 408 470 33,800 1,150 Climbing Denver Center
Tue 12:33:44 PM 40.3469 -101.7808 81° East 403 464 34,900 600 Climbing Denver Center
Tue 12:34:44 PM 40.3672 -101.6158 80° East 413 475 35,000 50 Climbing Denver Center
Tue 12:35:44 PM 40.3878 -101.4617 81° East 424 488 35,000  Level Denver Center
Tue 12:36:44 PM 40.4061 -101.3103 81° East 446 513 35,000  Level Denver Center
Tue 12:37:44 PM 40.4289 -101.1283 80° East 458 527 35,000  Level Denver Center
Tue 12:38:44 PM 40.4503 -100.9600 80° East 458 527 35,000  Level Denver Center
Tue 12:39:44 PM 40.4703 -100.8108 81° East 463 533 35,000  Level Denver Center
Tue 12:40:44 PM 40.4911 -100.6453 79° East 463 533 35,000  Level Denver Center
Tue 12:41:44 PM 40.5172 -100.4625 82° East 463 533 35,000  Level Denver Center
Tue 12:42:44 PM 40.5356 -100.2967 79° East 463 533 35,000  Level Denver Center
Tue 12:43:44 PM 40.5567 -100.1472 82° East 458 527 35,000  Level Denver Center
Tue 12:45:33 PM 40.5925 -99.8267 82° East 464 534 35,000  Level Minneapolis Center
Tue 12:46:33 PM 40.6103 -99.6617 81° East 464 534 35,000  Level Minneapolis Center
Tue 12:47:33 PM 40.6300 -99.4969 80° East 458 527 35,000  Level Minneapolis Center
Tue 12:48:33 PM 40.6517 -99.3297 82° East 458 527 35,000  Level Minneapolis Center
Tue 12:49:33 PM 40.6689 -99.1644 81° East 458 527 35,000  Level Minneapolis Center
Tue 12:50:33 PM 40.6878 -99.0022 81° East 458 527 35,000  Level Minneapolis Center
Tue 12:51:33 PM 40.7056 -98.8533 81° East 458 527 35,000  Level Minneapolis Center
Tue 12:52:33 PM 40.7239 -98.6908 82° East 458 527 35,000  Level Minneapolis Center
Tue 12:53:33 PM 40.7425 -98.5225 81° East 458 527 35,000  Level Minneapolis Center
Tue 12:54:33 PM 40.7622 -98.3628 83° East 458 527 35,000  Level Minneapolis Center
Tue 12:55:32 PM 40.7781 -98.1969 81° East 458 527 35,000  Level Minneapolis Center
Tue 12:56:33 PM 40.7975 -98.0342 82° East 458 527 35,000  Level Minneapolis Center
Tue 12:57:32 PM 40.8147 -97.8683 82° East 458 527 35,000  Level Minneapolis Center
Tue 12:58:33 PM 40.8317 -97.7053 82° East 458 527 35,000  Level Minneapolis Center
Tue 12:59:33 PM 40.8483 -97.5419 82° East 458 527 35,000  Level Minneapolis Center
Tue 01:00:33 PM 40.8647 -97.3811 84° East 453 521 35,000  Level Minneapolis Center
Tue 01:01:33 PM 40.8767 -97.2203 83° East 441 507 35,000  Level Minneapolis Center
Tue 01:02:33 PM 40.8925 -97.0567 83° East 441 507 35,000  Level Minneapolis Center
Tue 01:03:33 PM 40.9083 -96.8931 82° East 441 507 35,000  Level Minneapolis Center
Tue 01:04:32 PM 40.9258 -96.7322 77° East 441 507 35,000  Level Minneapolis Center
Tue 01:05:32 PM 40.9533 -96.5744 77° East 441 507 35,000  Level Minneapolis Center
Tue 01:06:33 PM 40.9806 -96.4167 77° East 446 513 35,000  Level Minneapolis Center
Tue 01:07:32 PM 41.0075 -96.2614 76° East 446 513 35,000  Level Minneapolis Center
Tue 01:08:33 PM 41.0364 -96.1061 78° East 446 513 35,000  Level Minneapolis Center
Tue 01:09:33 PM 41.0611 -95.9450 77° East 446 513 35,000  Level Minneapolis Center
Tue 01:10:33 PM 41.0894 -95.7867 76° East 446 513 35,000  Level Minneapolis Center
Tue 01:11:33 PM 41.1200 -95.6256 78° East 446 513 35,000  Level Minneapolis Center
Tue 01:12:33 PM 41.1461 -95.4614 77° East 451 519 35,000  Level Minneapolis Center
Tue 01:13:33 PM 41.1739 -95.2997 76° East 451 519 35,000  Level Minneapolis Center
Tue 01:14:33 PM 41.2036 -95.1381 79° East 451 519 35,000  Level Minneapolis Center
Tue 01:15:33 PM 41.2267 -94.9733 77° East 451 519 35,000  Level Minneapolis Center
Tue 01:16:32 PM 41.2539 -94.8114 77° East 451 519 35,000 -252 Level Minneapolis Center
Tue 01:17:32 PM 41.2808 -94.6522 78° East 451 519 34,500 -793 Descending Minneapolis Center
Tue 01:18:33 PM 41.3072 -94.4925 79° East 446 513 33,400 -744 Descending Minneapolis Center
Tue 01:19:33 PM 41.3297 -94.3331 76° East 446 513 33,000 -200 Descending Minneapolis Center
Tue 01:20:33 PM 41.3600 -94.1706 79° East 446 513 33,000 -200 Level Minneapolis Center
Tue 01:21:33 PM 41.3839 -94.0050 77° East 451 519 32,600 -1,143 Descending Minneapolis Center
Tue 01:24:03 PM 41.4550 -93.5894 72° East 447 514 29,000 -1,571 Descending Chicago Center
Tue 01:25:03 PM 41.4942 -93.4311 72° East 447 514 27,100 -2,150 Descending Chicago Center
Tue 01:26:03 PM 41.5328 -93.2753 72° East 447 514 24,700 -2,350 Descending Chicago Center
Tue 01:27:03 PM 41.5714 -93.1194 73° East 442 509 22,400 -2,450 Descending Chicago Center
Tue 01:28:03 PM 41.6078 -92.9631 72° East 437 503 19,800 -2,800 Descending Chicago Center
Tue 01:29:03 PM 41.6439 -92.8094 73° East 431 496 16,800 -4,400 Descending Chicago Center
Tue 01:30:03 PM 41.6725 -92.6831 72° East 416 479 11,000 -2,350 Descending Chicago Center
Tue 01:31:03 PM 41.7056 -92.5486 71° East 400 460 12,100  Climbing Chicago Center
Tue 01:32:03 PM 41.7408 -92.4083 72° East 372 428 11,000 -650 Descending Chicago Center
Tue 01:33:03 PM 41.7689 -92.2928 71° East 343 395 10,800 -1,100 Descending Chicago Center
Tue 01:34:03 PM 41.7964 -92.1853 69° East 320 368 8,800 -2,100 Descending Chicago Center
Tue 01:35:03 PM 41.8261 -92.0836 69° East 299 344 6,600 -2,250 Descending Chicago Center
Tue 01:36:03 PM 41.8533 -91.9900 72° East 276 318 4,300 -1,800 Descending Chicago Center
Tue 01:37:03 PM 41.8739 -91.9069 75° East 256 295 3,000 -850 Descending Chicago Center
Tue 01:38:03 PM 41.8881 -91.8378 92° East 214 246 2,600 -650 Descending Chicago Center
Tue 01:39:03 PM 41.8869 -91.7819 76° East 170 196 1,700 4,200 Descending Chicago Center
Tue 01:40:03 PM 41.8986 -91.7211 76° East 170 196 11,000 9,300 Climbing Chicago Center

Login

Don't have an account? Register now (free) for customized features, flight alerts, and more!